Time;durP1;ratioP1;P1;durP2;ratioP2;P2;SDS_P1;SDS_P2;PMS_P1;PMS_P2;Temp;Humidity;BMP_temperature;BMP_pressure;BME280_temperature;BME280_humidity;BME280_pressure;Samples;Min_cycle;Max_cycle;Signal;HPM_P1;HPM_P2
2021/07/05 00:01:32;;;;;;;;;3.00;3.00;;;;;18.99;69.93;100945.06;5091625;27;45403;-81
2021/07/05 00:03:57;;;;;;;;;4.75;3.00;;;;;18.94;70.63;100929.41;5094983;27;46339;-81
2021/07/05 00:06:23;;;;;;;;;2.25;2.00;;;;;18.95;69.62;100932.91;5087603;27;45438;-81
2021/07/05 00:08:48;;;;;;;;;2.75;2.75;;;;;18.94;69.98;100936.56;5101319;27;45517;-81
2021/07/05 00:11:14;;;;;;;;;2.00;2.00;;;;;18.89;69.65;100927.03;5099440;27;45539;-80
2021/07/05 00:13:39;;;;;;;;;2.25;2.25;;;;;18.92;70.34;100927.78;5100331;27;45365;-80
2021/07/05 00:16:05;;;;;;;;;2.75;2.75;;;;;18.90;70.38;100919.91;5088791;27;45451;-80
2021/07/05 00:18:30;;;;;;;;;2.00;2.00;;;;;18.87;70.58;100910.31;5099867;27;45587;-80
2021/07/05 00:20:56;;;;;;;;;4.25;2.00;;;;;18.89;70.17;100903.06;5093618;27;45500;-80
2021/07/05 00:23:22;;;;;;;;;5.00;3.00;;;;;18.88;70.83;100901.38;5099464;27;45404;-80
2021/07/05 00:25:47;;;;;;;;;3.00;2.00;;;;;18.85;70.95;100909.56;5100930;27;45435;-80
2021/07/05 00:28:13;;;;;;;;;4.00;4.00;;;;;18.83;70.25;100918.59;5100908;27;45321;-80
2021/07/05 00:30:39;;;;;;;;;4.75;2.75;;;;;18.81;70.33;100918.72;5097197;27;45375;-80
2021/07/05 00:33:05;;;;;;;;;3.50;3.50;;;;;18.81;70.13;100920.50;5088896;27;46442;-81
2021/07/05 00:35:31;;;;;;;;;4.00;3.50;;;;;18.80;70.55;100921.47;5098481;27;45342;-78
2021/07/05 00:37:57;;;;;;;;;3.75;3.00;;;;;18.85;69.81;100936.19;5097247;27;45226;-78
2021/07/05 00:40:24;;;;;;;;;4.00;2.75;;;;;18.77;69.91;100917.19;5084288;27;45300;-79
2021/07/05 00:42:50;;;;;;;;;4.75;3.00;;;;;18.76;69.45;100923.47;5083784;27;45423;-79
2021/07/05 00:45:18;;;;;;;;;5.50;3.00;;;;;18.78;68.64;100924.22;5091186;27;45484;-79
2021/07/05 00:47:43;;;;;;;;;1.75;1.75;;;;;18.72;69.41;100917.50;5083387;27;45326;-83
2021/07/05 00:50:11;;;;;;;;;4.25;3.25;;;;;18.70;68.94;100913.22;5096021;27;45291;-75
2021/07/05 00:52:39;;;;;;;;;2.50;2.50;;;;;18.67;69.65;100920.44;5092083;27;45971;-81
2021/07/05 00:55:06;;;;;;;;;3.00;3.00;;;;;18.67;69.71;100915.13;5084480;27;45409;-82
2021/07/05 00:57:31;;;;;;;;;3.50;2.75;;;;;18.69;70.46;100919.50;5100531;27;45358;-83
2021/07/05 00:59:58;;;;;;;;;3.00;3.00;;;;;18.71;69.97;100928.25;5090357;27;45293;-84
2021/07/05 01:02:25;;;;;;;;;6.00;3.00;;;;;18.72;70.57;100930.81;5082543;27;45577;-84
2021/07/05 01:04:51;;;;;;;;;3.50;2.75;;;;;18.69;70.53;100924.84;5086866;27;45528;-84
2021/07/05 01:07:17;;;;;;;;;2.25;2.00;;;;;18.67;69.69;100901.81;5097285;27;45914;-84
2021/07/05 01:09:43;;;;;;;;;3.00;2.00;;;;;18.69;69.74;100883.09;5100168;27;45289;-83
2021/07/05 01:12:10;;;;;;;;;4.50;3.00;;;;;18.70;70.23;100886.59;5098938;27;46037;-82
2021/07/05 01:14:36;;;;;;;;;3.00;3.00;;;;;18.69;70.35;100876.91;5096928;27;45414;-82
2021/07/05 01:17:02;;;;;;;;;4.25;3.00;;;;;18.70;71.09;100895.44;5100313;27;45409;-83
2021/07/05 01:19:28;;;;;;;;;2.75;2.75;;;;;18.65;69.70;100890.41;5089671;27;45285;-83
2021/07/05 01:21:54;;;;;;;;;2.25;2.25;;;;;18.63;70.13;100892.34;5102919;27;46531;-83
2021/07/05 01:24:21;;;;;;;;;3.25;3.25;;;;;18.61;70.48;100870.28;5097797;27;46051;-82
2021/07/05 01:26:46;;;;;;;;;3.25;2.50;;;;;18.60;70.65;100868.56;5103748;27;45267;-82
2021/07/05 01:29:12;;;;;;;;;2.25;2.25;;;;;18.60;70.68;100865.91;5103708;27;45276;-83
2021/07/05 01:31:37;;;;;;;;;1.25;1.25;;;;;18.62;70.75;100864.00;5091493;27;45528;-83
2021/07/05 01:34:03;;;;;;;;;3.00;2.00;;;;;18.64;70.65;100875.38;5093480;27;45504;-89
2021/07/05 01:36:29;;;;;;;;;4.25;3.00;;;;;18.62;70.11;100864.00;5098748;27;45534;-89
2021/07/05 01:38:55;;;;;;;;;2.00;2.00;;;;;18.61;70.01;100866.78;5103316;27;45466;-86
2021/07/05 01:41:21;;;;;;;;;3.00;3.00;;;;;18.59;70.45;100852.72;5099199;27;45464;-86
2021/07/05 01:43:47;;;;;;;;;2.00;2.00;;;;;18.58;70.44;100859.84;5098937;27;47161;-84
2021/07/05 01:46:13;;;;;;;;;2.75;2.00;;;;;18.57;70.58;100868.75;5085268;27;45403;-84
2021/07/05 01:48:39;;;;;;;;;4.25;2.25;;;;;18.58;69.96;100878.47;5095595;27;45364;-84
2021/07/05 01:51:04;;;;;;;;;6.00;3.00;;;;;18.57;70.15;100881.25;5089557;27;46668;-82
2021/07/05 01:53:29;;;;;;;;;4.00;2.75;;;;;18.54;70.46;100872.47;5099802;27;45400;-82
2021/07/05 01:55:55;;;;;;;;;2.00;2.00;;;;;18.57;70.38;100874.09;5100178;27;45921;-79
2021/07/05 01:58:21;;;;;;;;;3.50;3.50;;;;;18.56;70.23;100875.06;5089231;27;45449;-80
2021/07/05 02:00:48;;;;;;;;;5.50;4.50;;;;;18.53;70.91;100881.44;5099807;27;46276;-81
2021/07/05 02:03:14;;;;;;;;;6.00;4.00;;;;;18.55;70.55;100868.00;5091224;27;45243;-79
2021/07/05 02:05:40;;;;;;;;;2.00;2.00;;;;;18.52;70.54;100861.06;5103019;27;45270;-73
2021/07/05 02:08:06;;;;;;;;;4.75;3.75;;;;;18.56;70.85;100869.72;5088399;27;45492;-73
2021/07/05 02:10:35;;;;;;;;;2.50;2.50;;;;;18.51;70.36;100875.34;5102677;27;45727;-82
2021/07/05 02:13:11;;;;;;;;;4.00;1.00;;;;;18.54;71.12;100882.28;5101751;27;45523;-81
2021/07/05 02:15:38;;;;;;;;;2.00;2.00;;;;;18.52;70.85;100873.56;5087325;27;45395;-81
2021/07/05 02:18:04;;;;;;;;;2.50;2.00;;;;;18.50;70.62;100875.44;5101898;27;45362;-81
2021/07/05 02:20:29;;;;;;;;;3.25;1.25;;;;;18.48;70.81;100874.69;5101231;27;45336;-82
2021/07/05 02:22:57;;;;;;;;;2.00;2.00;;;;;18.48;70.36;100872.03;5101700;27;45432;-82
2021/07/05 02:25:28;;;;;;;;;3.00;3.00;;;;;18.41;70.85;100867.13;5088209;27;45531;-81
2021/07/05 02:27:59;;;;;;;;;3.75;3.75;;;;;18.45;71.28;100862.44;5100087;27;47114;-81
2021/07/05 02:30:27;;;;;;;;;4.25;3.75;;;;;18.49;70.91;100868.44;5095335;27;45484;-81
2021/07/05 02:32:53;;;;;;;;;2.00;2.00;;;;;18.48;70.50;100866.69;5101762;27;45237;-81
2021/07/05 02:35:21;;;;;;;;;3.25;3.00;;;;;18.42;70.09;100863.47;5082161;27;45470;-81
2021/07/05 02:37:48;;;;;;;;;3.00;2.00;;;;;18.43;71.36;100865.19;5101063;27;45414;-85
2021/07/05 02:40:16;;;;;;;;;3.00;3.00;;;;;18.42;71.29;100850.19;5102494;27;46305;-84
2021/07/05 02:42:43;;;;;;;;;1.00;1.00;;;;;18.41;71.19;100843.16;5089746;27;45511;-85
2021/07/05 02:45:16;;;;;;;;;2.00;2.00;;;;;18.47;71.44;100843.72;5092608;27;45367;-84
2021/07/05 02:47:41;;;;;;;;;2.00;2.00;;;;;18.40;70.85;100828.13;5083526;27;46833;-88
2021/07/05 02:50:08;;;;;;;;;2.00;2.00;;;;;18.38;71.19;100830.06;5097915;27;47297;-82
2021/07/05 02:52:34;;;;;;;;;1.75;1.75;;;;;18.35;71.32;100822.25;5100391;27;45355;-82
2021/07/05 02:55:00;;;;;;;;;3.00;3.00;;;;;18.37;71.55;100817.69;5099377;27;46073;-82
2021/07/05 02:57:31;;;;;;;;;3.25;2.00;;;;;18.39;71.87;100815.81;5097149;27;45258;-83
2021/07/05 03:00:21;;;;;;;;;3.00;1.50;;;;;18.37;72.25;100815.03;5090370;27;47290;-83
2021/07/05 03:02:47;;;;;;;;;1.75;1.75;;;;;18.37;72.12;100812.38;5102053;27;45659;-86
2021/07/05 03:05:15;;;;;;;;;4.25;2.25;;;;;18.33;71.44;100816.19;5100573;27;45357;-77
2021/07/05 03:07:42;;;;;;;;;2.00;2.00;;;;;18.32;71.72;100817.16;5087573;27;45218;-77
2021/07/05 03:10:11;;;;;;;;;3.50;2.50;;;;;18.32;72.09;100806.53;5101732;27;45631;-79
2021/07/05 03:12:37;;;;;;;;;2.75;2.75;;;;;18.31;72.22;100799.47;5093248;27;45675;-83
2021/07/05 03:15:05;;;;;;;;;4.50;3.00;;;;;18.30;71.78;100795.09;5098559;27;45454;-82
2021/07/05 03:17:30;;;;;;;;;3.25;3.25;;;;;18.29;71.89;100798.72;5098371;27;47162;-83
2021/07/05 03:19:56;;;;;;;;;2.50;2.50;;;;;18.24;71.96;100790.19;5101658;27;45199;-82
2021/07/05 03:22:21;;;;;;;;;2.25;2.00;;;;;18.25;72.81;100802.56;5095538;27;45235;-79
2021/07/05 03:24:47;;;;;;;;;4.50;4.50;;;;;18.19;72.93;100799.34;5094107;27;45613;-81
2021/07/05 03:27:12;;;;;;;;;3.25;3.00;;;;;18.22;73.23;100808.94;5101499;27;45281;-83
2021/07/05 03:29:39;;;;;;;;;2.50;2.50;;;;;18.17;72.99;100806.53;5087665;27;46465;-82
2021/07/05 03:32:06;;;;;;;;;3.25;3.25;;;;;18.21;72.84;100801.88;5091568;27;45571;-82
2021/07/05 03:34:32;;;;;;;;;4.50;3.25;;;;;18.20;72.99;100800.16;5094808;27;45413;-83
2021/07/05 03:36:58;;;;;;;;;4.00;4.00;;;;;18.15;73.09;100791.63;5100523;27;45470;-83
2021/07/05 03:39:24;;;;;;;;;2.75;2.75;;;;;18.16;73.24;100791.50;5100466;27;46539;-85
2021/07/05 03:41:49;;;;;;;;;4.00;3.00;;;;;18.18;73.25;100794.06;5099839;27;45246;-88
2021/07/05 03:44:15;;;;;;;;;2.50;2.50;;;;;18.20;73.50;100806.34;5095467;27;45269;-87
2021/07/05 03:46:40;;;;;;;;;3.25;2.00;;;;;18.16;73.39;100785.34;5101628;27;45409;-83
2021/07/05 03:49:06;;;;;;;;;6.25;5.00;;;;;18.18;73.41;100786.09;5101332;27;45440;-83
2021/07/05 03:51:33;;;;;;;;;4.00;3.25;;;;;18.18;73.62;100784.28;5097513;27;45263;-82
2021/07/05 03:53:58;;;;;;;;;3.00;3.00;;;;;18.18;73.77;100781.63;5093043;27;46519;-82
2021/07/05 03:56:24;;;;;;;;;2.50;2.50;;;;;18.14;73.10;100771.28;5101324;27;45227;-82
2021/07/05 03:58:49;;;;;;;;;2.75;2.75;;;;;18.15;73.71;100765.84;5092470;27;45440;-82
2021/07/05 04:01:15;;;;;;;;;3.25;3.00;;;;;18.18;73.88;100765.66;5080120;27;45711;-79
2021/07/05 04:03:40;;;;;;;;;2.50;2.00;;;;;18.17;73.71;100766.63;5093985;27;45456;-82
2021/07/05 04:06:05;;;;;;;;;3.50;2.25;;;;;18.14;73.56;100753.53;5088317;27;45526;-83
2021/07/05 04:08:33;;;;;;;;;4.25;3.25;;;;;18.11;73.81;100745.75;5101196;27;46458;-76
2021/07/05 04:10:59;;;;;;;;;5.00;3.00;;;;;18.10;73.36;100754.66;5097423;27;45309;-81
2021/07/05 04:13:27;;;;;;;;;2.00;1.75;;;;;18.10;73.50;100746.69;5096401;27;45487;-81
2021/07/05 04:15:53;;;;;;;;;3.00;3.00;;;;;18.05;73.41;100735.50;5087844;27;45464;-81
2021/07/05 04:18:19;;;;;;;;;2.75;2.50;;;;;18.03;73.48;100735.59;5095385;27;45460;-81
2021/07/05 04:20:44;;;;;;;;;2.00;1.25;;;;;18.05;73.21;100728.38;5099410;27;45474;-84
2021/07/05 04:23:10;;;;;;;;;4.00;2.25;;;;;18.03;73.40;100735.59;5099543;27;45461;-83
2021/07/05 04:25:36;;;;;;;;;3.00;3.00;;;;;18.04;73.42;100737.31;5096470;27;45352;-83
2021/07/05 04:28:02;;;;;;;;;3.00;3.00;;;;;18.04;73.63;100737.31;5099211;27;45957;-83
2021/07/05 04:30:29;;;;;;;;;2.50;2.00;;;;;18.00;73.77;100731.31;5089442;27;45295;-90
2021/07/05 04:32:55;;;;;;;;;2.00;2.00;;;;;17.98;73.43;100725.25;5097741;27;45439;-91
2021/07/05 04:35:21;;;;;;;;;2.00;1.00;;;;;18.01;73.59;100732.19;5086181;27;45533;-90
2021/07/05 04:37:48;;;;;;;;;1.25;1.25;;;;;17.95;73.08;100733.44;5099991;27;45495;-89
2021/07/05 04:40:16;;;;;;;;;1.25;1.25;;;;;17.95;72.91;100738.75;5099202;27;45436;-88
2021/07/05 04:42:43;;;;;;;;;1.50;1.50;;;;;17.95;73.13;100738.75;5085300;27;45428;-87
2021/07/05 04:45:10;;;;;;;;;1.00;1.00;;;;;17.91;73.38;100731.06;5084935;27;45860;-88
2021/07/05 04:47:37;;;;;;;;;2.25;2.25;;;;;17.91;73.34;100737.25;5083338;27;45370;-92
2021/07/05 04:50:03;;;;;;;;;2.25;1.25;;;;;17.91;73.45;100736.38;5094619;27;45308;-84
2021/07/05 04:52:28;;;;;;;;;3.00;2.00;;;;;17.86;73.62;100728.72;5092432;27;45293;-90
2021/07/05 04:54:54;;;;;;;;;1.50;1.25;;;;;17.90;73.80;100729.38;5087880;27;46100;-88
2021/07/05 04:57:19;;;;;;;;;4.75;3.00;;;;;17.89;73.59;100728.53;5099041;27;46391;-89
2021/07/05 04:59:45;;;;;;;;;2.00;2.00;;;;;17.90;73.69;100718.75;5092296;27;45829;-92
2021/07/05 05:02:10;;;;;;;;;2.75;2.75;;;;;17.86;73.95;100696.81;5097242;27;45480;-89
2021/07/05 05:04:35;;;;;;;;;2.75;2.75;;;;;17.90;73.48;100695.69;5087423;27;45531;-94
2021/07/05 05:07:01;;;;;;;;;2.75;2.75;;;;;17.88;73.88;100679.81;5085997;27;47035;-88
2021/07/05 05:09:26;;;;;;;;;3.75;3.00;;;;;17.89;73.90;100672.69;5098475;27;45539;-88
2021/07/05 05:11:52;;;;;;;;;4.00;2.75;;;;;17.90;73.98;100661.13;5098098;27;45422;-91
2021/07/05 05:14:18;;;;;;;;;3.00;3.00;;;;;17.89;74.07;100648.75;5093854;27;45438;-82
2021/07/05 05:16:45;;;;;;;;;5.00;3.00;;;;;17.90;74.06;100655.78;5086581;27;47212;-84
2021/07/05 05:19:10;;;;;;;;;2.25;2.25;;;;;17.84;74.04;100643.75;5094026;27;45186;-84
2021/07/05 05:21:35;;;;;;;;;4.75;3.00;;;;;17.83;73.92;100643.84;5084389;27;45531;-87
2021/07/05 05:24:03;;;;;;;;;2.25;2.25;;;;;17.82;74.00;100631.50;5098561;27;45389;-87
2021/07/05 05:26:28;;;;;;;;;2.00;2.00;;;;;17.82;73.77;100631.50;5099050;27;46606;-87
2021/07/05 05:28:54;;;;;;;;;2.00;2.00;;;;;17.84;74.37;100632.25;5097048;27;45451;-88
2021/07/05 05:31:20;;;;;;;;;2.00;2.00;;;;;17.80;74.13;100613.00;5096293;27;45439;-88
2021/07/05 05:33:45;;;;;;;;;1.00;1.00;;;;;17.83;73.91;100607.47;5097228;27;46178;-88
2021/07/05 05:36:11;;;;;;;;;1.25;1.25;;;;;17.81;73.58;100592.56;5094274;27;46394;-86
2021/07/05 05:38:37;;;;;;;;;2.75;2.00;;;;;17.82;73.47;100591.63;5094985;27;45374;-86
2021/07/05 05:41:04;;;;;;;;;5.25;3.00;;;;;17.85;74.10;100600.25;5098611;27;45534;-88
2021/07/05 05:43:29;;;;;;;;;2.75;2.75;;;;;17.80;73.54;100596.19;5096912;27;46059;-81
2021/07/05 05:46:00;;;;;;;;;1.25;1.25;;;;;17.76;73.82;100608.84;5098136;27;46299;-81
2021/07/05 05:48:26;;;;;;;;;1.75;1.25;;;;;17.77;73.97;100619.38;5089372;27;45409;-80
2021/07/05 05:50:51;;;;;;;;;3.00;2.25;;;;;17.75;74.24;100615.94;5093199;27;45444;-80
2021/07/05 05:53:16;;;;;;;;;2.00;2.00;;;;;17.76;74.11;100625.63;5097628;27;45601;-80
2021/07/05 05:55:46;;;;;;;;;2.00;2.00;;;;;17.82;74.30;100637.69;5098255;27;46389;-81
2021/07/05 05:58:12;;;;;;;;;1.00;1.00;;;;;17.86;73.76;100636.53;5095921;27;45227;-81
2021/07/05 06:00:37;;;;;;;;;3.00;2.25;;;;;17.90;73.30;100642.50;5096519;27;45322;-81
2021/07/05 06:03:02;;;;;;;;;4.00;2.50;;;;;17.91;73.74;100654.81;5100644;27;45583;-77
2021/07/05 06:05:28;;;;;;;;;4.50;3.00;;;;;17.91;74.07;100649.50;5101415;27;46359;-83
2021/07/05 06:07:53;;;;;;;;;3.00;3.00;;;;;17.96;74.40;100650.06;5100737;27;45251;-84
2021/07/05 06:10:21;;;;;;;;;2.00;2.00;;;;;17.98;73.98;100644.63;5101374;27;45210;-84
2021/07/05 06:12:47;;;;;;;;;2.50;2.50;;;;;18.00;74.45;100640.91;5098150;27;46821;-78
2021/07/05 06:15:14;;;;;;;;;1.50;1.25;;;;;18.06;74.49;100636.16;5091387;27;45837;-78
2021/07/05 06:17:40;;;;;;;;;4.00;2.25;;;;;18.12;73.80;100646.41;5096142;27;45719;-78
2021/07/05 06:20:06;;;;;;;;;2.00;1.50;;;;;18.16;73.45;100642.56;5087685;27;45399;-78
2021/07/05 06:22:38;;;;;;;;;2.00;2.00;;;;;18.14;73.75;100635.63;5089497;27;45278;-77
2021/07/05 06:25:04;;;;;;;;;1.75;1.50;;;;;18.17;73.83;100636.31;5099685;27;46489;-78
2021/07/05 06:27:30;;;;;;;;;2.25;2.25;;;;;18.24;73.54;100635.91;5102712;27;45348;-77
2021/07/05 06:29:55;;;;;;;;;3.00;2.25;;;;;18.22;73.73;100634.19;5103100;27;45160;-76
2021/07/05 06:32:20;;;;;;;;;3.00;2.50;;;;;18.28;73.89;100642.72;5102431;27;45233;-76
2021/07/05 06:34:46;;;;;;;;;2.25;2.25;;;;;18.29;73.89;100647.94;5102294;27;45314;-76
2021/07/05 06:37:11;;;;;;;;;2.00;2.00;;;;;18.20;73.75;100651.22;5095776;27;45373;-76
2021/07/05 06:39:36;;;;;;;;;3.00;3.00;;;;;18.22;74.06;100647.50;5092668;27;45289;-76
2021/07/05 06:42:02;;;;;;;;;2.75;2.75;;;;;18.24;73.29;100647.41;5086834;27;45250;-76
2021/07/05 06:44:28;;;;;;;;;3.00;3.00;;;;;18.20;73.43;100635.25;5084662;27;47517;-76
2021/07/05 06:46:53;;;;;;;;;2.50;2.50;;;;;18.26;73.79;100644.63;5102465;27;45284;-76
2021/07/05 06:49:20;;;;;;;;;6.00;4.00;;;;;18.24;73.41;100647.41;5089982;27;46045;-76
2021/07/05 06:51:45;;;;;;;;;3.25;3.25;;;;;18.31;74.41;100650.50;5082287;27;45496;-76
2021/07/05 06:54:11;;;;;;;;;4.50;4.25;;;;;18.33;74.10;100636.13;5083734;27;45541;-77
2021/07/05 06:56:37;;;;;;;;;3.00;2.25;;;;;18.39;73.73;100640.19;5086631;27;45388;-76
2021/07/05 06:59:02;;;;;;;;;3.00;3.00;;;;;18.48;74.43;100643.16;5088674;27;45469;-76
2021/07/05 07:01:28;;;;;;;;;3.00;3.00;;;;;18.52;74.40;100642.03;5091139;27;45559;-76
2021/07/05 07:03:55;;;;;;;;;2.00;2.00;;;;;18.54;74.79;100629.47;5100450;27;47257;-76
2021/07/05 07:06:20;;;;;;;;;3.00;3.00;;;;;18.61;74.64;100627.22;5089915;27;45227;-76
2021/07/05 07:08:46;;;;;;;;;4.50;3.25;;;;;18.64;73.42;100622.53;5082821;27;45250;-76
2021/07/05 07:11:12;;;;;;;;;6.00;4.00;;;;;18.69;74.06;100629.34;5094285;27;45550;-76
2021/07/05 07:13:39;;;;;;;;;2.25;2.25;;;;;18.73;73.06;100631.69;5101215;27;46316;-76
2021/07/05 07:16:04;;;;;;;;;5.00;4.75;;;;;18.76;73.76;100641.28;5084673;27;45546;-77
2021/07/05 07:21:00;;;;;;;;;3.25;3.25;;;;;18.83;73.05;100647.88;5093212;27;45504;-77
2021/07/05 07:23:25;;;;;;;;;5.25;3.50;;;;;18.81;72.94;100641.81;5093911;27;45331;-77
2021/07/05 07:25:51;;;;;;;;;5.75;5.00;;;;;18.78;72.99;100644.69;5100948;27;45401;-77
2021/07/05 07:28:16;;;;;;;;;5.00;5.00;;;;;18.80;73.71;100647.22;5100061;27;45303;-77
2021/07/05 07:30:42;;;;;;;;;8.00;4.75;;;;;18.81;72.97;100649.81;5082754;27;45277;-77
2021/07/05 07:33:07;;;;;;;;;3.25;3.00;;;;;18.82;72.52;100655.94;5080862;27;45429;-77
2021/07/05 07:35:33;;;;;;;;;3.50;3.50;;;;;18.78;72.30;100644.69;5094315;27;45342;-77
2021/07/05 07:37:58;;;;;;;;;5.50;5.00;;;;;18.78;71.87;100650.00;5101571;27;45241;-77
2021/07/05 07:40:27;;;;;;;;;6.50;6.00;;;;;18.75;71.82;100644.88;5095460;27;46708;-77
2021/07/05 07:42:53;;;;;;;;;4.25;3.25;;;;;18.76;72.15;100654.59;5091790;27;46624;-77
2021/07/05 07:45:20;;;;;;;;;5.25;4.00;;;;;18.80;72.29;100671.19;5095280;27;45508;-77
2021/07/05 07:47:46;;;;;;;;;5.00;4.25;;;;;18.74;72.21;100665.31;5090181;27;45328;-77
2021/07/05 07:50:14;;;;;;;;;4.25;4.00;;;;;18.71;72.30;100659.38;5100484;27;45408;-77
2021/07/05 07:52:40;;;;;;;;;5.00;5.00;;;;;18.77;72.80;100665.13;5101157;27;46856;-77
2021/07/05 07:55:07;;;;;;;;;5.25;5.25;;;;;18.77;73.09;100662.47;5094515;27;45368;-77
2021/07/05 07:57:33;;;;;;;;;4.50;3.75;;;;;18.88;72.19;100668.84;5097215;27;45542;-77
2021/07/05 07:59:58;;;;;;;;;4.50;4.50;;;;;18.87;71.70;100649.34;5101226;27;45438;-77
2021/07/05 08:02:23;;;;;;;;;8.50;5.50;;;;;18.90;72.61;100648.28;5101161;27;45579;-77
2021/07/05 08:04:49;;;;;;;;;5.00;4.75;;;;;18.93;72.55;100649.88;5089178;27;45321;-77
2021/07/05 08:07:14;;;;;;;;;4.00;4.00;;;;;18.96;71.76;100647.03;5080740;27;45239;-77
2021/07/05 08:09:40;;;;;;;;;6.00;5.25;;;;;19.02;72.25;100646.56;5080690;27;45220;-77
2021/07/05 08:12:07;;;;;;;;;5.00;5.00;;;;;19.09;72.03;100642.50;5080722;27;45465;-77
2021/07/05 08:14:33;;;;;;;;;5.00;5.00;;;;;19.15;71.14;100643.91;5080568;27;45226;-77
2021/07/05 08:16:58;;;;;;;;;5.50;5.50;;;;;19.16;71.85;100634.94;5080601;27;45217;-77
2021/07/05 08:19:23;;;;;;;;;7.00;7.00;;;;;19.27;72.86;100631.53;5080469;27;45199;-77
2021/07/05 08:21:49;;;;;;;;;6.25;4.75;;;;;19.37;73.21;100642.38;5091648;27;45564;-77
2021/07/05 08:24:14;;;;;;;;;5.75;5.75;;;;;19.43;73.07;100641.94;5087871;27;45374;-77
2021/07/05 08:26:40;;;;;;;;;6.75;6.75;;;;;19.55;73.02;100653.53;5082334;27;45476;-77
2021/07/05 08:29:05;;;;;;;;;8.25;5.75;;;;;19.61;73.43;100651.34;5100264;27;45546;-77
2021/07/05 08:31:31;;;;;;;;;4.75;4.75;;;;;19.66;72.27;100650.06;5100576;27;45447;-77
2021/07/05 08:33:59;;;;;;;;;5.00;5.00;;;;;19.73;72.71;100655.78;5097520;27;45307;-77
2021/07/05 08:36:24;;;;;;;;;5.25;5.25;;;;;19.85;72.97;100655.88;5080054;27;45420;-77
2021/07/05 08:38:50;;;;;;;;;7.00;5.50;;;;;19.90;70.93;100656.38;5091888;27;45281;-77
2021/07/05 08:41:16;;;;;;;;;4.75;3.00;;;;;19.94;71.18;100657.84;5100686;27;46258;-77
2021/07/05 08:43:44;;;;;;;;;6.00;6.00;;;;;19.96;71.58;100660.38;5099804;27;45478;-77
2021/07/05 08:46:11;;;;;;;;;6.00;6.00;;;;;19.99;71.58;100661.03;5097792;27;45160;-77
2021/07/05 08:48:39;;;;;;;;;5.00;3.00;;;;;19.96;71.56;100663.91;5100530;27;45548;-77
2021/07/05 08:51:09;;;;;;;;;4.75;4.75;;;;;19.97;71.65;100662.97;5100239;27;46186;-77
2021/07/05 08:53:35;;;;;;;;;4.00;4.00;;;;;20.01;72.19;100661.75;5098544;27;46083;-77
2021/07/05 08:56:01;;;;;;;;;3.00;3.00;;;;;20.07;71.61;100655.13;5084055;27;45414;-76
2021/07/05 08:58:26;;;;;;;;;1.25;1.25;;;;;20.12;71.31;100654.81;5093825;27;45536;-76
2021/07/05 09:00:52;;;;;;;;;2.75;2.75;;;;;20.19;69.73;100658.72;5095533;27;46511;-76
2021/07/05 09:03:26;;;;;;;;;2.75;2.75;;;;;20.24;70.51;100661.88;5093439;27;45410;-76
2021/07/05 09:06:08;;;;;;;;;1.00;1.00;;;;;20.28;70.40;100657.16;5089727;27;45290;-76
2021/07/05 09:08:41;;;;;;;;;2.00;2.00;;;;;20.29;70.74;100655.34;5079723;27;45497;-76
2021/07/05 09:11:08;;;;;;;;;3.00;3.00;;;;;20.31;70.60;100662.25;5079921;27;45314;-77
2021/07/05 09:13:51;;;;;;;;;1.50;1.00;;;;;20.37;69.90;100668.97;5090463;27;45218;-77
2021/07/05 09:16:35;;;;;;;;;1.50;1.50;;;;;20.40;69.15;100667.84;5081594;27;45393;-77
2021/07/05 09:19:01;;;;;;;;;1.50;1.50;;;;;20.40;69.96;100660.69;5088812;27;45153;-76
2021/07/05 09:21:31;;;;;;;;;2.00;2.00;;;;;20.42;69.05;100658.75;5079585;27;45267;-76
2021/07/05 09:24:07;;;;;;;;;2.00;2.00;;;;;20.45;68.94;100661.19;5079678;27;45427;-76
2021/07/05 09:26:33;;;;;;;;;1.00;1.00;;;;;20.50;68.57;100673.34;5089990;27;45431;-76
2021/07/05 09:29:06;;;;;;;;;3.25;2.00;;;;;20.54;69.63;100672.16;5081267;27;45474;-76
2021/07/05 09:31:42;;;;;;;;;1.25;1.25;;;;;20.58;68.73;100676.28;5080030;27;45507;-76
2021/07/05 09:34:23;;;;;;;;;2.75;1.00;;;;;20.61;68.63;100678.72;5079399;27;45416;-76
2021/07/05 09:36:52;;;;;;;;;1.00;1.00;;;;;20.65;68.44;100671.31;5093972;27;45278;-76
2021/07/05 09:39:20;;;;;;;;;1.00;0.50;;;;;20.66;68.21;100673.88;5103067;27;45331;-76
2021/07/05 09:41:49;;;;;;;;;2.00;2.00;;;;;20.73;69.13;100681.41;5096002;27;45838;-75
2021/07/05 09:44:17;;;;;;;;;1.00;1.00;;;;;20.73;68.86;100682.25;5083801;27;45223;-76
2021/07/05 09:46:51;;;;;;;;;1.00;1.00;;;;;20.68;68.25;100666.59;5096270;27;45464;-76
2021/07/05 09:49:17;;;;;;;;;2.25;1.00;;;;;20.73;68.07;100663.56;5086631;27;45298;-77
2021/07/05 09:51:46;;;;;;;;;2.00;2.00;;;;;20.72;67.59;100671.72;5081830;27;47196;-76
2021/07/05 09:54:16;;;;;;;;;1.00;1.00;;;;;20.74;66.57;100664.41;5099082;27;45310;-76
2021/07/05 09:56:43;;;;;;;;;1.75;0.50;;;;;20.76;67.73;100666.00;5096791;27;45480;-76
2021/07/05 09:59:21;;;;;;;;;1.00;0.00;;;;;20.82;66.59;100669.16;5084053;27;45415;-76
2021/07/05 10:01:49;;;;;;;;;4.00;1.00;;;;;20.84;66.15;100677.91;5084382;27;45515;-76
2021/07/05 10:04:32;;;;;;;;;2.00;2.00;;;;;20.89;66.75;100689.09;5082735;27;45658;-76
2021/07/05 10:06:59;;;;;;;;;1.75;1.75;;;;;20.97;66.96;100685.78;5083005;27;45156;-76
2021/07/05 10:09:44;;;;;;;;;1.00;1.00;;;;;21.03;66.37;100674.66;5088241;27;45544;-76
2021/07/05 10:12:26;;;;;;;;;0.50;0.25;;;;;21.10;66.78;100675.88;5093996;27;45526;-76
2021/07/05 10:15:06;;;;;;;;;1.00;1.00;;;;;21.21;66.52;100682.19;5082460;27;45459;-76
2021/07/05 10:17:45;;;;;;;;;1.50;1.50;;;;;21.25;66.65;100678.31;5084748;27;45407;-76
2021/07/05 10:20:13;;;;;;;;;2.00;2.00;;;;;21.28;66.14;100666.53;5084854;27;45636;-76
2021/07/05 10:22:44;;;;;;;;;0.75;0.75;;;;;21.32;65.18;100663.47;5081539;27;45388;-76
2021/07/05 10:25:10;;;;;;;;;1.00;0.00;;;;;21.40;64.98;100673.56;5082068;27;45485;-77
2021/07/05 10:27:36;;;;;;;;;1.50;1.50;;;;;21.41;66.01;100672.56;5098336;27;45317;-77
2021/07/05 10:30:08;;;;;;;;;2.00;1.00;;;;;21.49;66.12;100663.94;5091748;27;45601;-76
2021/07/05 10:32:34;;;;;;;;;2.00;2.00;;;;;21.53;65.34;100668.03;5099771;27;48284;-76
2021/07/05 10:35:00;;;;;;;;;2.50;1.00;;;;;21.57;65.17;100671.31;5102110;27;45350;-76
2021/07/05 10:37:50;;;;;;;;;1.00;1.00;;;;;21.63;64.19;100684.19;5101436;27;45167;-76
2021/07/05 10:40:18;;;;;;;;;0.00;0.00;;;;;21.62;65.02;100695.88;5102655;27;45334;-76
2021/07/05 10:42:53;;;;;;;;;1.25;1.25;;;;;21.61;64.58;100688.00;5102351;27;46250;-77
2021/07/05 10:45:19;;;;;;;;;1.00;1.00;;;;;21.66;65.00;100696.47;5090972;27;45491;-77
2021/07/05 10:47:48;;;;;;;;;1.00;1.00;;;;;21.68;63.86;100697.22;5095056;27;45514;-76
2021/07/05 10:50:45;;;;;;;;;1.25;1.25;;;;;21.73;64.07;100708.34;5102148;27;45456;-76
2021/07/05 10:53:39;;;;;;;;;0.50;0.25;;;;;21.72;64.12;100705.81;5101271;27;46516;-76
2021/07/05 10:56:23;;;;;;;;;1.00;1.00;;;;;21.79;63.61;100707.00;5085605;27;45603;-76
2021/07/05 10:58:50;;;;;;;;;1.00;1.00;;;;;21.82;64.89;100701.41;5081904;27;45507;-77
2021/07/05 11:01:34;;;;;;;;;1.00;1.00;;;;;21.88;64.18;100694.72;5081693;27;45380;-76
2021/07/05 11:04:15;;;;;;;;;0.25;0.25;;;;;21.96;63.77;100699.44;5092489;27;45550;-76
2021/07/05 11:06:42;;;;;;;;;1.00;1.00;;;;;21.96;63.82;100689.59;5092370;27;45254;-76
2021/07/05 11:09:08;;;;;;;;;1.00;1.00;;;;;21.95;63.22;100685.25;5089955;27;45294;-77
2021/07/05 11:11:44;;;;;;;;;1.00;1.00;;;;;21.96;63.72;100686.94;5092578;27;45369;-77
2021/07/05 11:14:16;;;;;;;;;1.00;1.00;;;;;22.00;63.65;100707.09;5101648;27;45329;-77
2021/07/05 11:17:04;;;;;;;;;1.25;1.25;;;;;22.00;63.96;100707.09;5100710;27;45278;-77
2021/07/05 11:19:30;;;;;;;;;1.00;1.00;;;;;22.01;63.90;100703.47;5096835;27;45267;-77
2021/07/05 11:21:59;;;;;;;;;1.00;1.00;;;;;22.04;64.05;100694.31;5081051;27;45339;-77
2021/07/05 11:24:35;;;;;;;;;1.25;1.25;;;;;22.08;63.36;100690.41;5098843;27;46396;-77
2021/07/05 11:27:39;;;;;;;;;1.50;1.50;;;;;22.13;62.96;100703.41;5101821;27;45210;-77
2021/07/05 11:30:22;;;;;;;;;1.00;1.00;;;;;22.11;63.55;100700.88;5100107;27;45358;-77